Time;durP1;ratioP1;P1;durP2;ratioP2;P2;SDS_P1;SDS_P2;PMS_P1;PMS_P2;Temp;Humidity;BMP_temperature;BMP_pressure;BME280_temperature;BME280_humidity;BME280_pressure;Samples;Min_cycle;Max_cycle;Signal;HPM_P1;HPM_P2
2021/05/09 00:00:48;;;;;;;2.30;0.50;;;17.40;99.90;;;;;;5044699;28;20036;-58
2021/05/09 00:03:13;;;;;;;1.35;0.80;;;17.40;99.90;;;;;;5045313;28;20099;-57
2021/05/09 00:05:39;;;;;;;0.55;0.45;;;17.30;99.90;;;;;;5044979;28;20082;-56
2021/05/09 00:08:05;;;;;;;0.60;0.40;;;17.40;99.90;;;;;;5043403;28;20033;-57
2021/05/09 00:10:30;;;;;;;1.02;0.68;;;17.40;99.90;;;;;;5043584;28;20426;-57
2021/05/09 00:12:57;;;;;;;2.78;0.52;;;17.30;99.90;;;;;;5044400;28;20038;-57
2021/05/09 00:15:25;;;;;;;1.17;0.60;;;17.30;99.90;;;;;;5044431;28;20020;-57
2021/05/09 00:17:51;;;;;;;2.60;0.60;;;17.30;99.90;;;;;;5044582;28;20028;-57
2021/05/09 00:20:18;;;;;;;0.65;0.45;;;17.40;99.90;;;;;;5044229;28;20037;-57
2021/05/09 00:22:44;;;;;;;0.55;0.40;;;17.40;99.90;;;;;;5044108;28;20040;-57
2021/05/09 00:25:10;;;;;;;1.63;0.50;;;17.30;99.90;;;;;;5044658;28;20380;-57
2021/05/09 00:27:37;;;;;;;2.08;0.57;;;17.30;99.90;;;;;;5044209;28;20070;-56
2021/05/09 00:30:04;;;;;;;0.90;0.50;;;17.30;99.90;;;;;;5044508;28;20480;-57
2021/05/09 00:32:31;;;;;;;1.00;0.63;;;17.30;99.90;;;;;;5046447;28;20025;-57
2021/05/09 00:34:57;;;;;;;1.08;0.60;;;17.30;99.90;;;;;;5051052;28;20017;-56
2021/05/09 00:37:23;;;;;;;0.93;0.55;;;17.20;99.90;;;;;;5067854;28;20025;-57
2021/05/09 00:39:48;;;;;;;0.77;0.70;;;17.30;99.90;;;;;;5068403;28;20035;-57
2021/05/09 00:42:16;;;;;;;0.55;0.40;;;17.20;99.90;;;;;;5068587;28;20115;-57
2021/05/09 00:44:41;;;;;;;1.30;0.63;;;17.20;99.90;;;;;;5066935;28;20029;-58
2021/05/09 00:47:12;;;;;;;0.63;0.50;;;17.20;99.90;;;;;;5068292;28;20029;-57
2021/05/09 00:49:40;;;;;;;0.80;0.50;;;17.20;99.90;;;;;;5068035;28;20060;-57
2021/05/09 00:52:08;;;;;;;0.30;0.30;;;17.20;99.90;;;;;;5066081;28;20035;-57
2021/05/09 00:54:52;;;;;;;0.50;0.50;;;17.20;99.90;;;;;;5050964;28;20025;-57
2021/05/09 00:57:21;;;;;;;0.93;0.50;;;17.20;99.90;;;;;;5048043;28;20107;-57
2021/05/09 00:59:50;;;;;;;1.38;0.63;;;17.20;99.90;;;;;;5048093;28;20029;-57
2021/05/09 01:02:18;;;;;;;1.35;0.55;;;17.20;99.90;;;;;;5047933;28;20025;-57
2021/05/09 01:04:44;;;;;;;0.50;0.50;;;17.10;99.90;;;;;;5048105;28;20021;-57
2021/05/09 01:07:13;;;;;;;0.90;0.60;;;17.00;99.90;;;;;;5067746;28;20056;-57
2021/05/09 01:09:39;;;;;;;1.30;0.40;;;17.10;99.90;;;;;;5065792;28;20041;-57
2021/05/09 01:12:05;;;;;;;0.88;0.73;;;17.00;99.90;;;;;;5065290;28;20028;-57
2021/05/09 01:14:31;;;;;;;0.93;0.75;;;17.00;99.90;;;;;;5067659;28;20017;-57
2021/05/09 01:16:58;;;;;;;0.68;0.47;;;16.90;99.90;;;;;;5064951;28;20028;-57
2021/05/09 01:19:24;;;;;;;0.75;0.55;;;17.00;99.90;;;;;;5066534;28;20047;-57
2021/05/09 01:21:51;;;;;;;2.78;0.60;;;16.90;99.90;;;;;;5056520;28;20032;-57
2021/05/09 01:24:17;;;;;;;0.75;0.43;;;16.90;99.90;;;;;;5048333;28;20108;-57
2021/05/09 01:26:43;;;;;;;1.40;0.60;;;16.90;99.90;;;;;;5046185;28;20028;-57
2021/05/09 01:29:09;;;;;;;0.75;0.50;;;16.90;99.90;;;;;;5047120;28;20673;-57
2021/05/09 01:31:35;;;;;;;1.08;0.60;;;16.90;99.90;;;;;;5047307;28;20333;-57
2021/05/09 01:34:01;;;;;;;0.85;0.50;;;16.80;99.90;;;;;;5052350;28;20427;-57
2021/05/09 01:36:26;;;;;;;1.83;0.57;;;16.80;99.90;;;;;;5054379;28;20211;-57
2021/05/09 01:38:54;;;;;;;0.63;0.50;;;16.70;99.90;;;;;;5066310;28;20074;-57
2021/05/09 01:41:21;;;;;;;0.60;0.50;;;16.80;99.90;;;;;;5067495;28;20498;-57
2021/05/09 01:43:46;;;;;;;1.52;0.60;;;16.70;99.90;;;;;;5065330;28;20401;-57
2021/05/09 01:46:12;;;;;;;0.95;0.60;;;16.70;99.90;;;;;;5066030;28;20032;-57
2021/05/09 01:48:38;;;;;;;0.57;0.40;;;16.70;99.90;;;;;;5064554;28;20029;-57
2021/05/09 01:51:04;;;;;;;1.05;0.50;;;16.70;99.90;;;;;;5060470;28;20036;-57
2021/05/09 01:53:30;;;;;;;1.40;0.70;;;16.70;99.90;;;;;;5056256;28;20518;-57
2021/05/09 01:55:56;;;;;;;2.28;0.70;;;16.70;99.90;;;;;;5067354;28;20095;-57
2021/05/09 01:58:23;;;;;;;0.40;0.40;;;16.70;99.90;;;;;;5067680;28;20024;-57
2021/05/09 02:00:49;;;;;;;0.50;0.30;;;16.80;99.90;;;;;;5067696;28;20024;-57
2021/05/09 02:03:15;;;;;;;0.50;0.40;;;16.90;99.90;;;;;;5049250;28;20033;-57
2021/05/09 02:05:41;;;;;;;0.43;0.35;;;16.80;99.90;;;;;;5046985;28;20031;-57
2021/05/09 02:08:07;;;;;;;0.35;0.30;;;16.70;99.90;;;;;;5046956;28;20025;-57
2021/05/09 02:10:32;;;;;;;0.57;0.45;;;16.80;99.90;;;;;;5047173;28;20463;-57
2021/05/09 02:12:58;;;;;;;0.80;0.47;;;16.70;99.90;;;;;;5046754;28;20478;-57
2021/05/09 02:15:24;;;;;;;0.75;0.47;;;16.70;99.90;;;;;;5046666;28;20487;-57
2021/05/09 02:17:49;;;;;;;0.30;0.30;;;16.90;99.90;;;;;;5047538;28;20055;-57
2021/05/09 02:20:15;;;;;;;0.95;0.40;;;16.70;99.90;;;;;;5047254;28;20025;-57
2021/05/09 02:22:42;;;;;;;1.15;0.60;;;16.70;99.90;;;;;;5058580;28;20494;-57
2021/05/09 02:25:08;;;;;;;0.43;0.43;;;16.80;99.90;;;;;;5066988;28;20108;-57
2021/05/09 02:27:34;;;;;;;0.40;0.30;;;16.80;99.90;;;;;;5066159;28;20020;-57
2021/05/09 02:30:00;;;;;;;0.20;0.20;;;16.90;99.90;;;;;;5066904;28;20451;-57
2021/05/09 02:32:27;;;;;;;0.40;0.30;;;16.90;99.90;;;;;;5065505;28;20039;-57
2021/05/09 02:34:53;;;;;;;0.40;0.40;;;16.90;99.90;;;;;;5066738;28;20024;-57
2021/05/09 02:37:18;;;;;;;0.40;0.40;;;16.80;99.90;;;;;;5066349;28;20491;-57
2021/05/09 02:39:46;;;;;;;0.30;0.20;;;16.80;99.90;;;;;;5067179;28;20016;-57
2021/05/09 02:42:12;;;;;;;0.38;0.30;;;16.80;99.90;;;;;;5057973;28;20025;-57
2021/05/09 02:44:39;;;;;;;0.30;0.30;;;16.90;99.90;;;;;;5057842;28;20086;-57
2021/05/09 02:47:05;;;;;;;0.40;0.40;;;16.90;99.90;;;;;;5066485;28;20024;-57
2021/05/09 02:49:31;;;;;;;0.60;0.30;;;17.00;99.90;;;;;;5066192;28;20450;-57
2021/05/09 02:51:58;;;;;;;0.20;0.20;;;17.10;99.90;;;;;;5055777;28;20033;-57
2021/05/09 02:54:24;;;;;;;0.32;0.32;;;16.80;99.90;;;;;;5056941;28;20104;-57
2021/05/09 02:56:49;;;;;;;0.45;0.32;;;16.90;99.90;;;;;;5046590;28;20104;-57
2021/05/09 02:59:15;;;;;;;0.28;0.28;;;17.00;99.90;;;;;;5047102;28;20021;-57
2021/05/09 03:01:40;;;;;;;0.77;0.40;;;17.00;99.90;;;;;;5048412;28;20037;-57
2021/05/09 03:04:06;;;;;;;1.55;0.40;;;17.00;99.90;;;;;;5066105;28;20016;-57
2021/05/09 03:06:32;;;;;;;0.20;0.20;;;17.10;99.90;;;;;;5065642;28;20035;-57
2021/05/09 03:08:57;;;;;;;0.47;0.30;;;17.00;99.90;;;;;;5057120;28;20067;-57
2021/05/09 03:11:28;;;;;;;0.40;0.30;;;17.00;99.90;;;;;;5060451;28;20142;-57
2021/05/09 03:13:53;;;;;;;0.43;0.30;;;17.00;99.90;;;;;;5045572;28;20033;-57
2021/05/09 03:16:19;;;;;;;0.52;0.32;;;16.80;99.90;;;;;;5046236;28;20108;-57
2021/05/09 03:18:44;;;;;;;0.30;0.30;;;16.80;99.90;;;;;;5063787;28;20047;-57
2021/05/09 03:21:10;;;;;;;0.55;0.32;;;16.80;99.90;;;;;;5065939;28;20043;-57
2021/05/09 03:23:36;;;;;;;0.75;0.40;;;16.80;99.90;;;;;;5065172;28;20025;-57
2021/05/09 03:26:01;;;;;;;0.40;0.40;;;16.80;99.90;;;;;;5055414;28;20029;-57
2021/05/09 03:28:27;;;;;;;0.40;0.40;;;16.80;99.90;;;;;;5060506;28;20036;-57
2021/05/09 03:30:53;;;;;;;0.90;0.68;;;16.90;99.90;;;;;;5065395;28;20043;-57
2021/05/09 03:33:19;;;;;;;0.28;0.28;;;16.80;99.90;;;;;;5065560;28;20047;-57
2021/05/09 03:35:45;;;;;;;0.30;0.30;;;16.90;99.90;;;;;;5065267;28;20020;-57
2021/05/09 03:38:11;;;;;;;0.82;0.32;;;16.90;99.90;;;;;;5052031;28;20021;-57
2021/05/09 03:40:40;;;;;;;0.28;0.28;;;16.80;99.90;;;;;;5060719;28;20117;-57
2021/05/09 03:43:06;;;;;;;1.35;0.20;;;16.90;99.90;;;;;;5065108;28;20098;-57
2021/05/09 03:45:32;;;;;;;0.30;0.22;;;16.80;99.90;;;;;;5064916;28;20303;-57
2021/05/09 03:47:58;;;;;;;0.63;0.30;;;16.80;99.90;;;;;;5054743;28;20399;-57
2021/05/09 03:50:24;;;;;;;0.30;0.30;;;16.70;99.90;;;;;;5043966;28;20025;-57
2021/05/09 03:52:50;;;;;;;0.40;0.40;;;16.70;99.90;;;;;;5045569;28;20509;-57
2021/05/09 03:55:16;;;;;;;0.40;0.40;;;16.70;99.90;;;;;;5044063;28;20025;-57
2021/05/09 03:57:42;;;;;;;0.98;0.52;;;16.60;99.90;;;;;;5052602;28;20648;-57
2021/05/09 04:00:08;;;;;;;0.30;0.30;;;16.60;99.90;;;;;;5065119;28;20032;-57
2021/05/09 04:02:35;;;;;;;0.95;0.52;;;16.70;99.90;;;;;;5065062;28;20093;-57
2021/05/09 04:05:01;;;;;;;0.40;0.40;;;16.60;99.90;;;;;;5062404;28;20033;-57
2021/05/09 04:07:27;;;;;;;0.52;0.47;;;16.70;99.90;;;;;;5050159;28;20086;-57
2021/05/09 04:09:53;;;;;;;0.50;0.50;;;16.60;99.90;;;;;;5063070;28;20044;-57
2021/05/09 04:12:19;;;;;;;1.38;0.45;;;16.70;99.90;;;;;;5065005;28;20040;-57
2021/05/09 04:14:46;;;;;;;0.63;0.40;;;16.70;99.90;;;;;;5064764;28;20099;-57
2021/05/09 04:17:11;;;;;;;0.30;0.30;;;16.70;99.90;;;;;;5060880;28;20119;-57
2021/05/09 04:19:37;;;;;;;0.30;0.30;;;16.70;99.90;;;;;;5043456;28;20490;-57
2021/05/09 04:22:03;;;;;;;0.40;0.40;;;16.70;99.90;;;;;;5045203;28;20099;-57
2021/05/09 04:24:29;;;;;;;0.30;0.30;;;16.70;99.90;;;;;;5044944;28;20120;-57
2021/05/09 04:26:55;;;;;;;0.40;0.40;;;16.80;99.90;;;;;;5044019;28;20107;-57
2021/05/09 04:29:21;;;;;;;1.05;0.35;;;16.80;99.90;;;;;;5044728;28;20503;-57
2021/05/09 04:31:47;;;;;;;0.30;0.30;;;16.80;99.90;;;;;;5044676;28;20079;-57
2021/05/09 04:34:14;;;;;;;0.77;0.22;;;16.70;99.90;;;;;;5044649;28;20025;-57
2021/05/09 04:36:40;;;;;;;0.20;0.20;;;16.70;99.90;;;;;;5044794;28;20051;-57
2021/05/09 04:39:06;;;;;;;0.60;0.35;;;16.80;99.90;;;;;;5044482;28;20450;-57
2021/05/09 04:41:31;;;;;;;0.20;0.20;;;16.80;99.90;;;;;;5053605;28;20350;-57
2021/05/09 04:43:59;;;;;;;0.30;0.30;;;17.00;99.90;;;;;;5063748;28;20035;-57
2021/05/09 04:46:25;;;;;;;0.20;0.20;;;17.00;99.90;;;;;;5064642;28;20028;-57
2021/05/09 04:48:50;;;;;;;0.20;0.20;;;17.10;99.90;;;;;;5047569;28;20557;-57
2021/05/09 04:51:16;;;;;;;0.32;0.32;;;17.00;99.90;;;;;;5044536;28;20098;-57
2021/05/09 04:53:42;;;;;;;1.33;0.35;;;17.00;99.90;;;;;;5044485;28;20037;-57
2021/05/09 04:56:08;;;;;;;1.17;0.30;;;17.00;99.90;;;;;;5045185;28;20491;-57
2021/05/09 04:58:41;;;;;;;0.43;0.30;;;16.80;99.90;;;;;;5058116;28;20027;-57
2021/05/09 05:01:09;;;;;;;0.82;0.35;;;16.90;99.90;;;;;;5065389;28;20033;-57
2021/05/09 05:03:36;;;;;;;0.40;0.32;;;17.00;99.90;;;;;;5065541;28;20031;-57
2021/05/09 05:06:02;;;;;;;0.30;0.30;;;17.10;99.90;;;;;;5066480;28;20103;-57
2021/05/09 05:08:30;;;;;;;0.57;0.30;;;17.10;99.90;;;;;;5052344;28;20037;-57
2021/05/09 05:10:55;;;;;;;0.73;0.30;;;16.90;99.90;;;;;;5056054;28;20036;-57
2021/05/09 05:13:22;;;;;;;0.30;0.30;;;16.90;99.90;;;;;;5063846;28;20031;-57
2021/05/09 05:15:53;;;;;;;0.28;0.28;;;16.90;99.90;;;;;;5064733;28;20032;-57
2021/05/09 05:18:20;;;;;;;0.30;0.30;;;17.00;99.90;;;;;;5045898;28;20051;-57
2021/05/09 05:20:46;;;;;;;0.30;0.30;;;17.10;99.90;;;;;;5049542;28;20036;-57
2021/05/09 05:23:13;;;;;;;0.55;0.20;;;17.20;99.90;;;;;;5049254;28;20059;-57
2021/05/09 05:25:39;;;;;;;0.22;0.22;;;17.10;99.90;;;;;;5049055;28;20410;-57
2021/05/09 05:28:05;;;;;;;0.70;0.30;;;17.10;99.90;;;;;;5049853;28;20483;-57
2021/05/09 05:30:32;;;;;;;0.32;0.32;;;17.10;99.90;;;;;;5049896;28;20028;-57
2021/05/09 05:32:58;;;;;;;0.28;0.28;;;17.00;99.90;;;;;;5049372;28;20072;-57
2021/05/09 05:35:25;;;;;;;1.15;0.45;;;17.10;99.90;;;;;;5049129;28;20067;-57
2021/05/09 05:37:55;;;;;;;0.73;0.40;;;17.00;99.90;;;;;;5053594;28;20024;-57
2021/05/09 05:40:22;;;;;;;0.75;0.50;;;17.00;99.90;;;;;;5067977;28;20102;-57
2021/05/09 05:42:49;;;;;;;0.30;0.30;;;17.00;99.90;;;;;;5068802;28;20035;-56
2021/05/09 05:45:15;;;;;;;0.38;0.30;;;17.10;99.90;;;;;;5068455;28;20021;-57
2021/05/09 05:47:41;;;;;;;0.32;0.20;;;17.10;99.90;;;;;;5068075;28;20486;-57
2021/05/09 05:50:08;;;;;;;0.20;0.20;;;17.20;99.90;;;;;;5069196;28;20032;-57
2021/05/09 05:52:34;;;;;;;1.75;0.52;;;17.20;99.90;;;;;;5051772;28;20021;-57
2021/05/09 05:55:00;;;;;;;0.40;0.40;;;17.20;99.90;;;;;;5063972;28;20117;-57
2021/05/09 05:57:25;;;;;;;0.90;0.40;;;17.30;99.90;;;;;;5055510;28;20017;-57
2021/05/09 05:59:51;;;;;;;1.30;0.77;;;17.30;99.90;;;;;;5068347;28;20023;-57
2021/05/09 06:02:17;;;;;;;0.50;0.50;;;17.30;99.90;;;;;;5067849;28;20025;-57
2021/05/09 06:04:43;;;;;;;0.65;0.38;;;17.20;99.90;;;;;;5068517;28;20032;-55
2021/05/09 06:07:11;;;;;;;1.48;0.68;;;17.20;99.90;;;;;;5068878;28;20044;-57
2021/05/09 06:09:37;;;;;;;0.52;0.47;;;17.20;99.90;;;;;;5068127;28;20486;-57
2021/05/09 06:12:03;;;;;;;0.85;0.52;;;17.20;99.90;;;;;;5069149;28;20030;-57
2021/05/09 06:14:30;;;;;;;0.63;0.40;;;17.40;99.90;;;;;;5067708;28;20037;-57
2021/05/09 06:16:55;;;;;;;0.90;0.65;;;17.50;99.90;;;;;;5068773;28;20028;-57
2021/05/09 06:19:21;;;;;;;0.60;0.40;;;17.30;99.90;;;;;;5066649;28;20153;-57
2021/05/09 06:21:47;;;;;;;0.30;0.30;;;17.50;99.90;;;;;;5068652;28;20035;-56
2021/05/09 06:24:13;;;;;;;1.50;0.63;;;17.50;99.90;;;;;;5067960;28;20036;-57
2021/05/09 06:26:38;;;;;;;0.38;0.30;;;17.50;99.90;;;;;;5067722;28;20035;-57
2021/05/09 06:29:04;;;;;;;1.27;0.73;;;17.50;99.90;;;;;;5067264;28;20399;-57
2021/05/09 06:31:30;;;;;;;1.15;0.52;;;17.40;99.90;;;;;;5068176;28;20029;-56
2021/05/09 06:33:56;;;;;;;1.05;0.50;;;17.50;99.90;;;;;;5068056;28;20462;-57
2021/05/09 06:36:22;;;;;;;0.50;0.50;;;17.60;99.90;;;;;;5062687;28;20025;-57
2021/05/09 06:38:48;;;;;;;1.17;0.50;;;17.70;99.90;;;;;;5061898;28;20089;-56
2021/05/09 06:41:14;;;;;;;0.57;0.50;;;17.80;99.90;;;;;;5064603;28;20375;-57
2021/05/09 06:43:40;;;;;;;1.30;0.60;;;17.80;99.90;;;;;;5063471;28;20044;-57
2021/05/09 06:46:06;;;;;;;1.08;0.70;;;17.80;99.90;;;;;;5067018;28;20047;-57
2021/05/09 06:48:32;;;;;;;1.10;0.63;;;17.80;99.90;;;;;;5065969;28;20029;-57
2021/05/09 06:50:58;;;;;;;1.42;0.50;;;18.00;99.90;;;;;;5061965;28;20055;-57
2021/05/09 06:53:24;;;;;;;1.60;0.70;;;18.10;99.90;;;;;;5046551;28;20542;-57
2021/05/09 06:55:51;;;;;;;1.70;0.52;;;18.20;99.90;;;;;;5066042;28;20032;-57
2021/05/09 06:58:19;;;;;;;0.57;0.50;;;18.20;99.90;;;;;;5065129;28;20135;-57
2021/05/09 07:00:45;;;;;;;1.38;0.40;;;18.30;99.90;;;;;;5067127;28;20499;-57
2021/05/09 07:03:10;;;;;;;2.55;0.70;;;18.40;99.90;;;;;;5067539;28;20047;-57
2021/05/09 07:05:36;;;;;;;1.33;0.40;;;18.50;99.90;;;;;;5061895;28;20024;-57
2021/05/09 07:08:04;;;;;;;0.60;0.40;;;18.50;99.90;;;;;;5062506;28;20028;-57
2021/05/09 07:10:33;;;;;;;0.82;0.40;;;18.60;99.90;;;;;;5051464;28;20032;-57
2021/05/09 07:12:59;;;;;;;0.40;0.40;;;18.70;99.90;;;;;;5062271;28;20047;-57
2021/05/09 07:15:36;;;;;;;0.70;0.40;;;18.80;99.90;;;;;;5049946;28;20032;-57
2021/05/09 07:18:09;;;;;;;1.00;0.30;;;18.80;99.90;;;;;;5056772;28;20425;-57
2021/05/09 07:20:38;;;;;;;0.80;0.60;;;18.90;99.90;;;;;;5067770;28;20044;-57
2021/05/09 07:23:05;;;;;;;0.55;0.55;;;18.90;99.90;;;;;;5067627;28;20108;-57
2021/05/09 07:25:31;;;;;;;0.50;0.50;;;19.00;99.90;;;;;;5061894;28;20434;-56
2021/05/09 07:28:07;;;;;;;1.80;0.63;;;19.10;99.90;;;;;;5066861;28;20040;-56
2021/05/09 07:30:34;;;;;;;1.27;0.73;;;19.10;99.90;;;;;;5067617;28;20031;-56
2021/05/09 07:33:00;;;;;;;0.50;0.50;;;19.10;99.90;;;;;;5067514;28;20021;-56
2021/05/09 07:35:27;;;;;;;0.43;0.43;;;19.20;99.90;;;;;;5064628;28;20442;-57
2021/05/09 07:37:54;;;;;;;0.75;0.63;;;19.30;99.90;;;;;;5065934;28;20094;-56
2021/05/09 07:40:22;;;;;;;0.85;0.70;;;19.30;99.90;;;;;;5065672;28;20498;-57
2021/05/09 07:42:48;;;;;;;1.48;0.52;;;19.20;99.90;;;;;;5064356;28;20060;-57
2021/05/09 07:45:17;;;;;;;0.60;0.60;;;19.20;99.90;;;;;;5065498;28;20059;-56
2021/05/09 07:47:44;;;;;;;0.95;0.57;;;19.30;99.90;;;;;;5065771;28;20111;-57
2021/05/09 07:50:10;;;;;;;1.23;0.70;;;19.30;99.90;;;;;;5065898;28;20059;-57
2021/05/09 07:52:36;;;;;;;1.77;0.75;;;19.40;99.90;;;;;;5064369;28;20033;-57
2021/05/09 07:55:02;;;;;;;1.33;0.70;;;19.40;99.90;;;;;;5064326;28;20513;-56
2021/05/09 07:57:28;;;;;;;1.98;0.57;;;19.40;99.90;;;;;;5045464;28;20033;-56
2021/05/09 07:59:54;;;;;;;1.10;0.60;;;19.40;99.90;;;;;;5049146;28;20507;-57
2021/05/09 08:02:20;;;;;;;1.35;0.60;;;19.40;99.90;;;;;;5064038;28;20032;-57
2021/05/09 08:04:47;;;;;;;1.15;0.60;;;19.50;99.90;;;;;;5066769;28;20094;-57
2021/05/09 08:07:13;;;;;;;0.60;0.60;;;19.50;99.90;;;;;;5066306;28;20051;-56
2021/05/09 08:09:38;;;;;;;1.75;0.90;;;19.60;99.90;;;;;;5066273;28;20068;-57
2021/05/09 08:12:05;;;;;;;2.28;0.80;;;19.60;99.90;;;;;;5066975;28;20091;-57
2021/05/09 08:14:31;;;;;;;0.95;0.63;;;19.60;99.90;;;;;;5067331;28;20052;-57
2021/05/09 08:16:57;;;;;;;1.15;0.70;;;19.70;99.90;;;;;;5058590;28;20029;-57
2021/05/09 08:19:23;;;;;;;0.60;0.60;;;19.80;99.90;;;;;;5051992;28;20611;-57
2021/05/09 08:21:50;;;;;;;1.35;0.63;;;19.90;99.90;;;;;;5062267;28;20036;-56
2021/05/09 08:24:17;;;;;;;2.83;0.82;;;20.00;99.90;;;;;;5064372;28;20040;-56
2021/05/09 08:26:43;;;;;;;1.92;0.80;;;20.00;99.90;;;;;;5066201;28;20056;-57
2021/05/09 08:29:08;;;;;;;3.95;0.85;;;20.20;99.90;;;;;;5066929;28;20109;-57
2021/05/09 08:31:35;;;;;;;1.95;0.70;;;20.20;99.90;;;;;;5065914;28;20498;-56
2021/05/09 08:34:01;;;;;;;2.42;0.60;;;20.20;99.90;;;;;;5066199;28;20060;-56
2021/05/09 08:36:27;;;;;;;2.83;0.93;;;20.20;99.90;;;;;;5058011;28;20084;-57
2021/05/09 08:38:53;;;;;;;1.58;0.80;;;20.20;99.90;;;;;;5058167;28;20059;-57
2021/05/09 08:41:19;;;;;;;1.60;0.63;;;20.30;99.90;;;;;;5066233;28;20090;-57
2021/05/09 08:43:45;;;;;;;4.97;0.90;;;20.40;99.90;;;;;;5064867;28;20036;-57
2021/05/09 08:46:14;;;;;;;0.82;0.63;;;20.40;99.90;;;;;;5066992;28;20719;-57
2021/05/09 08:48:41;;;;;;;1.00;0.70;;;20.50;99.90;;;;;;5066318;28;20035;-57
2021/05/09 08:51:07;;;;;;;1.67;0.82;;;20.60;99.90;;;;;;5063501;28;20043;-57
2021/05/09 08:53:33;;;;;;;0.80;0.70;;;20.60;99.90;;;;;;5069022;28;20415;-57
2021/05/09 08:55:59;;;;;;;2.03;0.80;;;20.60;99.90;;;;;;5060451;28;20037;-57
2021/05/09 08:58:25;;;;;;;1.40;0.77;;;20.60;99.90;;;;;;5060933;28;20104;-57
2021/05/09 09:00:51;;;;;;;1.30;0.70;;;20.50;99.90;;;;;;5070057;28;20025;-57
2021/05/09 09:03:17;;;;;;;1.23;0.73;;;20.60;99.90;;;;;;5060553;28;20047;-57
2021/05/09 09:05:45;;;;;;;2.63;0.80;;;20.50;99.90;;;;;;5069127;28;20057;-56
2021/05/09 09:08:14;;;;;;;1.33;0.90;;;20.60;99.90;;;;;;5068609;28;20032;-57
2021/05/09 09:10:53;;;;;;;1.15;0.75;;;20.70;99.90;;;;;;5049114;28;20037;-57
2021/05/09 09:13:20;;;;;;;2.97;1.00;;;20.60;99.90;;;;;;5060087;28;20033;-57
2021/05/09 09:15:47;;;;;;;2.50;0.85;;;20.70;99.90;;;;;;5068989;28;20059;-57
2021/05/09 09:18:38;;;;;;;1.25;0.70;;;20.90;99.90;;;;;;5060015;28;20029;-57
2021/05/09 09:21:25;;;;;;;1.13;0.75;;;20.90;99.90;;;;;;5050391;28;20063;-57
2021/05/09 09:23:56;;;;;;;2.35;0.77;;;21.00;99.90;;;;;;5050235;28;20037;-57
2021/05/09 09:26:33;;;;;;;1.30;0.82;;;21.20;99.90;;;;;;5065776;28;20029;-57
2021/05/09 09:29:23;;;;;;;0.90;0.60;;;21.20;99.70;;;;;;5059437;28;21833;-57
2021/05/09 09:31:54;;;;;;;1.52;0.60;;;21.30;99.60;;;;;;5068069;28;20041;-57
2021/05/09 09:34:21;;;;;;;2.50;0.60;;;21.40;99.40;;;;;;5049795;28;20021;-57
2021/05/09 09:36:47;;;;;;;4.38;0.90;;;21.50;99.20;;;;;;5058959;28;20040;-56
2021/05/09 09:39:13;;;;;;;0.60;0.60;;;21.60;99.30;;;;;;5065410;28;20013;-56
2021/05/09 09:41:49;;;;;;;1.10;0.70;;;21.60;98.80;;;;;;5057364;28;20039;-56
2021/05/09 09:44:17;;;;;;;3.10;1.27;;;21.70;99.30;;;;;;5058970;28;20024;-56
2021/05/09 09:46:51;;;;;;;1.13;0.80;;;21.80;99.10;;;;;;5068897;28;20387;-57
2021/05/09 09:49:22;;;;;;;3.33;0.93;;;21.80;99.10;;;;;;5068851;28;20491;-57
2021/05/09 09:51:51;;;;;;;2.10;1.00;;;21.80;98.90;;;;;;5062568;28;20056;-57
2021/05/09 09:54:49;;;;;;;1.25;0.85;;;21.90;98.00;;;;;;5058117;28;20483;-55
2021/05/09 09:57:22;;;;;;;1.30;0.80;;;21.90;98.40;;;;;;5052454;28;20037;-56
2021/05/09 10:00:08;;;;;;;2.42;1.38;;;21.90;98.70;;;;;;5066150;28;20078;-56
2021/05/09 10:02:34;;;;;;;2.03;1.13;;;22.00;98.20;;;;;;5059305;28;20447;-55
2021/05/09 10:05:00;;;;;;;2.03;1.10;;;22.20;98.30;;;;;;5066198;28;20032;-55
2021/05/09 10:07:27;;;;;;;1.45;1.05;;;22.00;98.10;;;;;;5068115;28;20040;-56
2021/05/09 10:09:55;;;;;;;1.45;0.80;;;21.80;98.10;;;;;;5066032;28;20021;-55
2021/05/09 10:12:21;;;;;;;2.63;0.75;;;21.70;98.10;;;;;;5067289;28;20143;-56
2021/05/09 10:14:48;;;;;;;1.38;0.70;;;21.70;98.30;;;;;;5067686;28;20190;-54
2021/05/09 10:17:16;;;;;;;1.17;0.65;;;21.80;98.60;;;;;;5068264;28;20029;-56
2021/05/09 10:19:43;;;;;;;5.35;1.10;;;22.10;98.50;;;;;;5051034;28;20029;-56
2021/05/09 10:22:28;;;;;;;2.45;1.27;;;22.30;98.90;;;;;;5048101;28;20043;-55
2021/05/09 10:24:55;;;;;;;1.20;0.80;;;22.20;98.60;;;;;;5054930;28;20048;-56
2021/05/09 10:27:40;;;;;;;1.77;1.40;;;22.10;98.90;;;;;;5067272;28;20032;-56
2021/05/09 10:30:11;;;;;;;4.10;1.60;;;22.00;99.00;;;;;;5065111;28;20024;-56
2021/05/09 10:32:36;;;;;;;2.88;1.90;;;21.90;99.30;;;;;;5067578;28;20498;-56
2021/05/09 10:35:03;;;;;;;2.60;1.48;;;21.90;99.60;;;;;;5067222;28;20032;-55
2021/05/09 10:40:25;;;;;;;2.47;1.17;;;21.90;99.50;;;;;;5068142;28;20103;-56
2021/05/09 10:43:03;;;;;;;4.18;1.17;;;21.90;99.60;;;;;;5066537;28;20106;-56
2021/05/09 10:45:35;;;;;;;3.25;1.45;;;22.00;99.70;;;;;;5066600;28;20076;-56
2021/05/09 10:48:13;;;;;;;1.35;0.80;;;22.20;99.40;;;;;;5067524;28;20135;-55
2021/05/09 10:50:40;;;;;;;1.60;1.20;;;22.10;98.90;;;;;;5066407;28;20644;-55
2021/05/09 10:53:06;;;;;;;2.40;1.02;;;22.10;98.60;;;;;;5067150;28;20094;-56
2021/05/09 10:55:42;;;;;;;1.77;1.10;;;22.20;99.20;;;;;;5065955;28;20029;-56
2021/05/09 10:58:10;;;;;;;1.63;1.10;;;22.20;99.00;;;;;;5065955;28;20025;-55
2021/05/09 11:00:54;;;;;;;2.85;1.15;;;22.40;99.30;;;;;;5066105;28;20039;-55
2021/05/09 11:03:35;;;;;;;2.92;1.42;;;22.60;98.60;;;;;;5068354;28;20023;-56
2021/05/09 11:06:17;;;;;;;2.92;0.98;;;22.70;98.80;;;;;;5078654;28;20025;-56
2021/05/09 11:08:52;;;;;;;2.08;1.10;;;22.70;98.70;;;;;;5065814;28;20040;-53
2021/05/09 11:11:42;;;;;;;3.80;1.15;;;22.70;98.10;;;;;;5051441;28;20025;-56
2021/05/09 11:14:09;;;;;;;2.13;1.38;;;22.80;98.30;;;;;;5059624;28;20353;-56
2021/05/09 11:16:55;;;;;;;2.35;0.90;;;22.80;97.60;;;;;;5064803;28;20384;-55
2021/05/09 11:19:24;;;;;;;2.67;1.10;;;22.70;97.10;;;;;;5066325;28;20028;-57
2021/05/09 11:21:55;;;;;;;2.60;1.17;;;22.80;97.20;;;;;;5066353;28;20027;-56
2021/05/09 11:24:23;;;;;;;2.72;1.40;;;23.00;97.40;;;;;;5065328;28;20059;-56
2021/05/09 11:26:50;;;;;;;2.67;1.10;;;22.90;97.10;;;;;;5066462;28;20036;-54
2021/05/09 11:29:16;;;;;;;1.63;1.00;;;22.90;97.00;;;;;;5066801;28;20025;-56
2021/05/09 11:31:48;;;;;;;2.65;0.93;;;23.00;96.70;;;;;;5063181;28;20084;-56
2021/05/09 11:34:15;;;;;;;2.58;1.50;;;23.10;97.20;;;;;;5055193;28;20040;-56
2021/05/09 11:36:43;;;;;;;2.45;1.08;;;23.30;97.00;;;;;;5060777;28;20674;-57
2021/05/09 11:39:12;;;;;;;3.95;1.10;;;23.30;96.50;;;;;;5065385;28;20044;-57
2021/05/09 11:42:12;;;;;;;1.15;0.82;;;23.30;96.80;;;;;;5065743;28;20042;-55
2021/05/09 11:44:47;;;;;;;2.17;1.17;;;23.40;97.10;;;;;;5053945;28;20060;-55
2021/05/09 11:47:23;;;;;;;1.25;1.00;;;23.60;95.90;;;;;;5066026;28;20025;-56
2021/05/09 11:50:04;;;;;;;2.40;0.80;;;23.70;96.00;;;;;;5066499;28;20063;-57
2021/05/09 11:52:40;;;;;;;3.33;1.00;;;23.90;96.00;;;;;;5065656;28;20043;-56
2021/05/09 11:55:08;;;;;;;2.13;1.10;;;24.10;95.60;;;;;;5060693;28;20031;-56
2021/05/09 11:57:34;;;;;;;5.15;1.00;;;24.40;95.90;;;;;;5065031;28;20033;-56
2021/05/09 12:00:11;;;;;;;3.33;1.10;;;24.30;95.00;;;;;;5061244;28;20051;-52
2021/05/09 12:02:47;;;;;;;2.53;1.40;;;24.40;94.30;;;;;;5051079;28;20039;-55
2021/05/09 12:05:25;;;;;;;2.60;1.20;;;24.20;94.60;;;;;;5060471;28;20124;-57
2021/05/09 12:07:59;;;;;;;2.40;1.00;;;24.20;94.60;;;;;;5064897;28;20059;-56
2021/05/09 12:10:25;;;;;;;2.65;0.80;;;24.00;94.30;;;;;;5066019;28;20060;-54
2021/05/09 12:13:05;;;;;;;1.45;1.08;;;24.20;94.70;;;;;;5065324;28;20063;-56
2021/05/09 12:15:38;;;;;;;2.30;0.90;;;24.10;94.90;;;;;;5060445;28;20032;-57
2021/05/09 12:18:06;;;;;;;1.90;1.00;;;24.20;95.00;;;;;;5063310;28;20016;-56
2021/05/09 12:20:45;;;;;;;1.25;0.82;;;24.50;94.80;;;;;;5066031;28;20024;-56
2021/05/09 12:23:17;;;;;;;2.72;1.00;;;24.50;94.30;;;;;;5057280;28;20100;-53
2021/05/09 12:25:45;;;;;;;2.05;1.00;;;24.40;94.70;;;;;;5063456;28;20039;-57
2021/05/09 12:28:30;;;;;;;1.83;0.80;;;24.40;94.70;;;;;;5066794;28;20029;-56
2021/05/09 12:31:08;;;;;;;1.98;1.02;;;24.50;94.80;;;;;;5069394;28;20497;-56
2021/05/09 12:33:33;;;;;;;1.88;1.02;;;24.30;93.90;;;;;;5069675;28;20032;-57
2021/05/09 12:36:09;;;;;;;1.38;1.02;;;24.40;94.20;;;;;;5069750;28;20082;-56
2021/05/09 12:38:35;;;;;;;4.47;1.08;;;24.20;94.20;;;;;;5069525;28;20020;-56
2021/05/09 12:41:11;;;;;;;2.13;1.10;;;24.20;94.20;;;;;;5068715;28;20541;-56
2021/05/09 12:43:47;;;;;;;2.47;1.10;;;24.10;94.40;;;;;;5068907;28;20434;-56
2021/05/09 12:46:47;;;;;;;1.95;1.20;;;24.20;94.50;;;;;;5069286;28;20032;-56
2021/05/09 12:49:19;;;;;;;2.15;1.20;;;24.30;94.10;;;;;;5060924;28;20017;-57
2021/05/09 12:52:03;;;;;;;7.53;1.40;;;24.80;94.50;;;;;;5050079;28;20100;-57
2021/05/09 12:54:42;;;;;;;1.58;1.05;;;25.00;93.70;;;;;;5068291;28;20104;-56
2021/05/09 12:57:21;;;;;;;1.70;1.08;;;25.30;93.80;;;;;;5068531;28;20033;-57